Flight Track Log - Related Links

Times and Time Zones

All times are in EDT time to prevent confusion due to time zone crossing. See the N269ML flight status page for this flight to view local times or setup timezone preferences in your user account.

Time Position Orientation Groundspeed Altitude Reporting Facility
EDT Latitude Longitude Course Direction KTS MPH feet Rate Location/Type
Thu 08:10:06 PM 30.0506 -90.0300 349° North 93 107 400  Level Houston Center
Thu 08:10:37 PM 30.0675 -90.0339 349° North 123 142 1,200 1,500 Climbing Houston Center
Thu 08:11:50 PM 30.0897 -90.0786 300° West 144 166 3,000 1,085 Climbing Houston Center
Thu 08:12:11 PM 30.0878 -90.0942 262° West 154 177 2,900  Descending Houston Center
Thu 08:12:50 PM 30.0853 -90.1367 266° West 201 231 3,000 97 Climbing Houston Center
Thu 08:13:13 PM 30.0844 -90.1572 267° West 181 208 3,000  Level Houston Center
Thu 08:13:51 PM 30.0833 -90.2064 269° West 211 243 3,000 97 Level Houston Center
Thu 08:14:15 PM 30.0828 -90.2236 268° West 196 226 3,100 1,180 Climbing Houston Center
Thu 08:14:52 PM 30.0853 -90.2686 274° West 190 219 4,200 1,452 Climbing Houston Center
Thu 08:15:17 PM 30.0947 -90.2800 314° West 197 227 4,600 1,527 Climbing Houston Center
Thu 08:15:47 PM 30.1178 -90.3083 313° West 185 213 5,600 1,452 Climbing Houston Center
Thu 08:16:19 PM 30.1322 -90.3217 321° Northwest 192 221 6,100 1,468 Climbing Houston Center
Thu 08:17:21 PM 30.1772 -90.3678 318° Northwest 185 213 7,900 1,500 Climbing Houston Center
Thu 08:18:23 PM 30.2150 -90.4056 319° Northwest 180 207 9,200 1,306 Climbing Houston Center
Thu 08:19:25 PM 30.2558 -90.4436 321° Northwest 188 216 10,600 1,355 Climbing Houston Center
Thu 08:20:27 PM 30.2944 -90.4806 320° Northwest 182 209 12,000 1,258 Climbing Houston Center
Thu 08:21:29 PM 30.3328 -90.5167 321° Northwest 178 205 13,200 1,161 Climbing Houston Center
Thu 08:22:31 PM 30.3717 -90.5528 321° Northwest 180 207 14,400 1,113 Climbing Houston Center
Thu 08:23:33 PM 30.4106 -90.5889 321° Northwest 179 206 15,500 1,065 Climbing Houston Center
Thu 08:24:35 PM 30.4447 -90.6450 305° West 177 204 16,600 1,024 Climbing Houston Center
Thu 08:25:36 PM 30.4775 -90.6908 310° West 184 212 17,600 976 Climbing Houston Center
Thu 08:26:38 PM 30.5106 -90.7328 312° West 178 205 18,600 871 Climbing Houston Center
Thu 08:27:40 PM 30.5408 -90.7792 307° West 179 206 19,400 774 Climbing Houston Center
Thu 08:28:42 PM 30.5739 -90.8225 308° West 180 207 20,200 774 Climbing Houston Center
Thu 08:29:44 PM 30.6064 -90.8653 311° West 179 206 21,000 774 Climbing Houston Center
Thu 08:30:46 PM 30.6431 -90.9175 309° West 175 201 21,800 677 Climbing Houston Center
Thu 08:31:48 PM 30.6747 -90.9611 310° West 177 204 22,400 581 Climbing Houston Center
Thu 08:32:50 PM 30.7083 -91.0039 312° West 178 205 23,000 532 Climbing Houston Center
Thu 08:33:52 PM 30.7406 -91.0489 310° West 181 208 23,500 581 Climbing Houston Center
Thu 08:34:54 PM 30.7731 -91.1025 305° West 180 207 24,200 629 Climbing Houston Center
Thu 08:35:56 PM 30.7992 -91.1472 304° West 170 196 24,800 581 Climbing Houston Center
Thu 08:36:58 PM 30.8283 -91.1886 309° West 167 192 25,400 484 Climbing Houston Center
Thu 08:38:00 PM 30.8536 -91.2322 304° West 164 189 25,800 290 Climbing Houston Center
Thu 08:39:02 PM 30.8831 -91.2764 308° West 169 194 26,000 97 Climbing Houston Center
Thu 08:40:04 PM 30.9178 -91.3219 312° West 184 212 26,000  Level Houston Center
Thu 08:41:06 PM 30.9531 -91.3861 303° West 196 226 26,000  Level Houston Center
Thu 08:42:08 PM 30.9828 -91.4408 302° West 199 229 26,000  Level Houston Center
Thu 08:43:10 PM 31.0131 -91.4956 303° West 201 231 26,000  Level Houston Center
Thu 08:44:12 PM 31.0433 -91.5503 303° West 201 231 26,000  Level Houston Center
Thu 08:45:14 PM 31.0742 -91.6039 304° West 200 230 26,000  Level Houston Center
Thu 08:46:16 PM 31.1044 -91.6564 304° West 198 228 26,000  Level Houston Center
Thu 08:47:17 PM 31.1328 -91.7097 302° West 194 223 26,000  Level Houston Center
Thu 08:48:19 PM 31.1678 -91.7719 303° West 193 222 26,000  Level Houston Center
Thu 08:49:21 PM 31.1961 -91.8244 302° West 191 220 26,000  Level Houston Center
Thu 08:50:23 PM 31.2269 -91.8769 304° West 195 224 26,000  Level Houston Center
Thu 08:51:25 PM 31.2558 -91.9294 303° West 194 223 26,000  Level Houston Center
Thu 08:52:27 PM 31.2850 -91.9819 303° West 193 222 26,000  Level Houston Center
Thu 08:53:28 PM 31.3186 -92.0422 303° West 195 224 26,000  Level Houston Center
Thu 08:54:30 PM 31.3489 -92.0958 303° West 197 227 26,000  Level Houston Center
Thu 08:55:32 PM 31.3786 -92.1489 303° West 196 226 26,000  Level Houston Center
Thu 08:56:34 PM 31.4081 -92.2025 303° West 196 226 26,000  Level Houston Center
Thu 08:57:35 PM 31.4383 -92.2558 304° West 196 226 26,000  Level Houston Center
Thu 08:58:37 PM 31.4753 -92.3206 304° West 198 228 26,000  Level Houston Center
Thu 08:59:39 PM 31.5033 -92.3728 302° West 195 224 26,000  Level Houston Center
Thu 09:00:40 PM 31.5331 -92.4269 303° West 196 226 26,000  Level Houston Center
Thu 09:01:42 PM 31.5631 -92.4797 304° West 195 224 26,000  Level Houston Center
Thu 09:02:43 PM 31.5925 -92.5339 303° West 196 226 26,000  Level Houston Center
Thu 09:03:45 PM 31.6231 -92.5878 304° West 198 228 26,000  Level Houston Center
Thu 09:04:46 PM 31.6519 -92.6414 302° West 196 226 26,000  Level Houston Center
Thu 09:05:48 PM 31.6811 -92.6950 303° West 195 224 26,000  Level Houston Center
Thu 09:06:49 PM 31.7169 -92.7600 303° West 197 227 26,000  Level Houston Center
Thu 09:07:51 PM 31.7469 -92.8142 303° West 198 228 26,000 -49 Level Houston Center
Thu 09:08:52 PM 31.7761 -92.8692 302° West 198 228 25,900 -49 Descending Houston Center
Thu 09:09:54 PM 31.8072 -92.9236 304° West 200 230 25,900  Level Houston Center
Thu 09:10:55 PM 31.8372 -92.9783 303° West 197 227 25,900  Level Houston Center
Thu 09:11:57 PM 31.8669 -93.0344 302° West 200 230 25,900  Level Houston Center
Thu 09:12:58 PM 31.8978 -93.0914 303° West 205 236 25,900  Level Houston Center
Thu 09:14:00 PM 31.9272 -93.1453 303° West 198 228 25,900  Level Houston Center
Thu 09:15:01 PM 31.9628 -93.2108 303° West 197 227 25,900  Level Houston Center
Thu 09:16:02 PM 31.9928 -93.2656 303° West 199 229 25,900  Level Houston Center
Thu 09:17:04 PM 32.0233 -93.3211 303° West 201 231 25,900  Level Houston Center
Thu 09:18:05 PM 32.0525 -93.3769 302° West 201 231 25,900  Level Houston Center
Thu 09:19:06 PM 32.0825 -93.4319 303° West 201 231 25,900  Level Houston Center
Thu 09:20:08 PM 32.1125 -93.4872 303° West 200 230 25,900  Level Houston Center
Thu 09:21:09 PM 32.1436 -93.5431 303° West 201 231 25,900  Level Houston Center
Thu 09:22:10 PM 32.1753 -93.6031 302° West 201 231 25,900  Level Houston Center
Thu 09:23:11 PM 32.2042 -93.6586 302° West 201 231 25,900  Level Houston Center
Thu 09:24:22 PM 32.2428 -93.7242 305° West 193 222 25,900  Level Fort Worth Center
Thu 09:25:22 PM 32.2717 -93.7819 301° West 199 229 25,900  Level Fort Worth Center
Thu 09:26:22 PM 32.3003 -93.8350 303° West 199 229 25,900  Level Fort Worth Center
Thu 09:27:22 PM 32.3311 -93.8903 303° West 205 236 25,900  Level Fort Worth Center
Thu 09:28:22 PM 32.3597 -93.9458 301° West 200 230 25,900  Level Fort Worth Center
Thu 09:29:22 PM 32.3883 -94.0011 302° West 200 230 25,900  Level Fort Worth Center
Thu 09:30:22 PM 32.4172 -94.0592 301° West 205 236 25,900  Level Fort Worth Center
Thu 09:31:22 PM 32.4478 -94.1097 306° West 205 236 25,900 50 Level Fort Worth Center
Thu 09:32:22 PM 32.4764 -94.1653 301° West 205 236 26,000 50 Climbing Fort Worth Center
Thu 09:33:22 PM 32.5028 -94.2211 299° West 205 236 26,000  Level Fort Worth Center
Thu 09:34:22 PM 32.5333 -94.2792 302° West 205 236 26,000  Level Fort Worth Center
Thu 09:35:22 PM 32.5619 -94.3322 303° West 205 236 26,000  Level Fort Worth Center
Thu 09:36:22 PM 32.5881 -94.3831 301° West 205 236 26,000  Level Fort Worth Center
Thu 09:37:22 PM 32.6186 -94.4389 303° West 200 230 26,000  Level Fort Worth Center
Thu 09:38:22 PM 32.6472 -94.4947 301° West 200 230 26,000  Level Fort Worth Center
Thu 09:39:22 PM 32.6756 -94.5481 302° West 205 236 26,000  Level Fort Worth Center
Thu 09:40:22 PM 32.7039 -94.6039 301° West 205 236 26,000  Level Fort Worth Center
Thu 09:41:22 PM 32.7300 -94.6525 303° West 205 236 26,000  Level Fort Worth Center
Thu 09:42:22 PM 32.7583 -94.7061 302° West 205 236 26,000  Level Fort Worth Center
Thu 09:43:22 PM 32.8011 -94.7542 317° Northwest 205 236 26,000  Level Fort Worth Center
Thu 09:44:22 PM 32.8458 -94.7972 321° Northwest 211 243 26,000  Level Fort Worth Center
Thu 09:45:22 PM 32.8908 -94.8456 318° Northwest 211 243 26,000  Level Fort Worth Center
Thu 09:46:22 PM 32.9394 -94.8861 325° Northwest 211 243 26,000 -200 Level Fort Worth Center
Thu 09:47:22 PM 32.9842 -94.9319 319° Northwest 211 243 25,600 -550 Descending Fort Worth Center
Thu 09:48:22 PM 33.0333 -94.9850 318° Northwest 217 250 24,900 -650 Descending Fort Worth Center
Thu 09:49:22 PM 33.0783 -95.0433 313° West 229 264 24,300 -450 Descending Fort Worth Center
Thu 09:50:22 PM 33.1044 -95.1097 295° West 229 264 24,000 -350 Descending Fort Worth Center
Thu 09:51:22 PM 33.1267 -95.1736 293° West 217 250 23,600 -700 Descending Fort Worth Center
Thu 09:52:22 PM 33.1486 -95.2400 292° West 217 250 22,600 -900 Descending Fort Worth Center
Thu 09:53:22 PM 33.1708 -95.3114 290° West 217 250 21,800 -900 Descending Fort Worth Center
Thu 09:54:22 PM 33.1969 -95.3828 294° West 228 262 20,800 -950 Descending Fort Worth Center
Thu 09:55:22 PM 33.2272 -95.4517 298° West 233 268 19,900 -1,000 Descending Fort Worth Center
Thu 09:56:22 PM 33.2594 -95.5181 300° West 233 268 18,800 -1,300 Descending Fort Worth Center
Thu 09:57:22 PM 33.2919 -95.5969 296° West 238 274 17,300 -1,200 Descending Fort Worth Center
Thu 09:58:22 PM 33.3222 -95.6658 298° West 238 274 16,400 -1,000 Descending Fort Worth Center
Thu 09:59:22 PM 33.3503 -95.7300 298° West 231 266 15,300 -1,100 Descending Fort Worth Center
Thu 10:00:22 PM 33.3783 -95.7989 296° West 236 272 14,200 -1,050 Descending Fort Worth Center
Thu 10:01:22 PM 33.4022 -95.8683 292° West 236 272 13,200 -950 Descending Fort Worth Center
Thu 10:02:22 PM 33.4258 -95.9400 292° West 229 264 12,300 -1,050 Descending Fort Worth Center
Thu 10:03:22 PM 33.4497 -96.0092 293° West 229 264 11,100 -1,050 Descending Fort Worth Center
Thu 10:04:22 PM 33.4733 -96.0786 292° West 229 264 10,200 -950 Descending Fort Worth Center
Thu 10:05:22 PM 33.4969 -96.1456 293° West 229 264 9,200 -1,000 Descending Fort Worth Center
Thu 10:06:22 PM 33.5186 -96.2100 292° West 229 264 8,200 -1,100 Descending Fort Worth Center
Thu 10:07:22 PM 33.5464 -96.2744 297° West 222 255 7,000 -1,150 Descending Fort Worth Center
Thu 10:08:22 PM 33.5739 -96.3414 296° West 217 250 5,900 -1,050 Descending Fort Worth Center
Thu 10:09:22 PM 33.5997 -96.4083 295° West 217 250 4,900 -1,000 Descending Fort Worth Center

Login

Don't have an account? Register now (free) for customized features, flight alerts, and more!